Time;durP1;ratioP1;P1;durP2;ratioP2;P2;SDS_P1;SDS_P2;PMS_P1;PMS_P2;Temp;Humidity;BMP_temperature;BMP_pressure;BME280_temperature;BME280_humidity;BME280_pressure;Samples;Min_cycle;Max_cycle;Signal;HPM_P1;HPM_P2
2024/01/05 00:01:43;;;;;;;9.57;6.82;;;2.90;99.90;;;;;;5088627;28;20540;-67
2024/01/05 00:04:09;;;;;;;8.73;6.75;;;2.70;99.90;;;;;;5088186;28;20043;-66
2024/01/05 00:06:38;;;;;;;7.65;6.05;;;2.80;99.90;;;;;;5088741;28;20741;-66
2024/01/05 00:09:04;;;;;;;7.22;4.20;;;2.70;99.90;;;;;;5091445;27;20335;-66
2024/01/05 00:11:30;;;;;;;6.65;4.03;;;2.80;99.90;;;;;;5072246;28;20602;-66
2024/01/05 00:13:57;;;;;;;9.00;5.93;;;2.80;99.90;;;;;;5087712;28;20048;-66
2024/01/05 00:16:23;;;;;;;5.35;4.80;;;2.60;99.90;;;;;;5072066;28;20053;-66
2024/01/05 00:18:50;;;;;;;8.98;6.25;;;2.50;99.90;;;;;;5070707;28;20110;-67
2024/01/05 00:21:28;;;;;;;11.85;7.55;;;2.50;99.90;;;;;;5054140;28;20500;-66
2024/01/05 00:23:55;;;;;;;8.65;6.13;;;2.50;99.90;;;;;;5075512;28;20116;-67
2024/01/05 00:26:21;;;;;;;7.47;6.28;;;2.60;99.90;;;;;;5071259;28;20047;-66
2024/01/05 00:28:48;;;;;;;15.25;7.65;;;2.50;99.90;;;;;;5088534;28;20054;-66
2024/01/05 00:31:15;;;;;;;7.78;5.75;;;2.50;99.90;;;;;;5088190;28;20311;-67
2024/01/05 00:33:41;;;;;;;10.38;7.85;;;2.60;99.90;;;;;;5071861;28;20173;-66
2024/01/05 00:36:11;;;;;;;11.02;7.82;;;2.60;99.90;;;;;;5088622;28;20070;-67
2024/01/05 00:38:37;;;;;;;11.32;7.00;;;2.40;99.90;;;;;;5071956;28;20049;-66
2024/01/05 00:41:04;;;;;;;8.85;6.72;;;2.50;99.90;;;;;;5071010;28;20096;-67
2024/01/05 00:43:29;;;;;;;12.50;9.07;;;2.60;99.90;;;;;;5093193;28;20043;-66
2024/01/05 00:45:55;;;;;;;8.30;6.63;;;2.60;99.90;;;;;;5071603;28;20043;-66
2024/01/05 00:48:22;;;;;;;11.48;7.82;;;2.40;99.90;;;;;;5088366;28;20159;-67
2024/01/05 00:50:48;;;;;;;11.98;8.57;;;2.40;99.90;;;;;;5088505;28;20052;-67
2024/01/05 00:53:14;;;;;;;13.80;9.00;;;2.60;99.90;;;;;;5088469;28;20612;-67
2024/01/05 00:55:40;;;;;;;11.75;7.53;;;2.40;99.90;;;;;;5053954;28;20069;-67
2024/01/05 00:58:05;;;;;;;10.73;7.72;;;2.40;99.90;;;;;;5071332;28;20078;-68
2024/01/05 01:00:31;;;;;;;10.82;6.72;;;2.50;99.90;;;;;;5071721;28;20123;-67
2024/01/05 01:02:57;;;;;;;12.85;9.13;;;2.60;99.90;;;;;;5088137;28;20054;-67
2024/01/05 01:05:23;;;;;;;14.68;10.30;;;2.40;99.90;;;;;;5071232;28;20050;-67
2024/01/05 01:07:49;;;;;;;13.30;9.10;;;2.70;99.90;;;;;;5088785;28;20059;-67
2024/01/05 01:10:15;;;;;;;12.50;9.57;;;2.40;99.90;;;;;;5088117;28;20661;-67
2024/01/05 01:12:41;;;;;;;16.58;10.45;;;2.70;99.90;;;;;;5070606;28;20127;-66
2024/01/05 01:15:07;;;;;;;12.32;9.10;;;2.70;99.90;;;;;;5087845;28;20709;-68
2024/01/05 01:17:34;;;;;;;15.57;9.82;;;2.40;99.90;;;;;;5088489;28;20035;-65
2024/01/05 01:19:59;;;;;;;15.82;9.25;;;2.60;99.90;;;;;;5070817;28;20058;-67
2024/01/05 01:22:25;;;;;;;17.13;10.38;;;2.50;99.90;;;;;;5088160;28;20043;-67
2024/01/05 01:24:51;;;;;;;14.48;8.27;;;2.50;99.90;;;;;;5087895;28;20510;-66
2024/01/05 01:27:17;;;;;;;17.67;10.52;;;2.70;99.90;;;;;;5070151;28;20522;-67
2024/01/05 01:29:43;;;;;;;14.10;9.10;;;2.60;99.90;;;;;;5087909;28;20507;-67
2024/01/05 01:32:09;;;;;;;12.95;9.52;;;2.50;99.90;;;;;;5091704;28;20315;-67
2024/01/05 01:34:38;;;;;;;13.57;9.82;;;2.70;99.90;;;;;;5074643;28;20057;-67
2024/01/05 01:37:04;;;;;;;19.45;10.93;;;2.50;99.90;;;;;;5075429;28;20032;-68
2024/01/05 01:39:30;;;;;;;18.40;10.38;;;2.60;99.90;;;;;;5080626;28;20398;-67
2024/01/05 01:41:57;;;;;;;16.58;11.82;;;2.50;99.90;;;;;;5090884;27;20891;-67
2024/01/05 01:44:22;;;;;;;16.88;10.68;;;2.40;99.90;;;;;;5080168;28;20386;-66
2024/01/05 01:46:51;;;;;;;17.52;11.70;;;2.40;99.90;;;;;;5074588;28;20050;-67
2024/01/05 01:49:18;;;;;;;14.55;9.73;;;2.30;99.90;;;;;;5091094;28;20044;-67
2024/01/05 01:51:44;;;;;;;18.90;10.35;;;2.30;99.90;;;;;;5074534;28;20078;-67
2024/01/05 01:54:11;;;;;;;13.15;8.75;;;2.70;99.90;;;;;;5090728;28;20116;-66
2024/01/05 01:56:37;;;;;;;16.15;11.80;;;2.70;99.90;;;;;;5074429;28;20354;-66
2024/01/05 01:59:05;;;;;;;21.67;12.60;;;2.60;99.90;;;;;;5073048;28;20312;-67
2024/01/05 02:01:30;;;;;;;16.95;11.90;;;2.40;99.90;;;;;;5091284;28;20361;-66
2024/01/05 02:03:57;;;;;;;19.13;11.68;;;2.40;99.90;;;;;;5074452;28;20727;-66
2024/01/05 02:06:23;;;;;;;19.50;11.05;;;2.40;99.90;;;;;;5091316;28;20515;-65
2024/01/05 02:08:50;;;;;;;17.70;11.30;;;2.40;99.90;;;;;;5074005;28;20036;-67
2024/01/05 02:11:16;;;;;;;22.15;12.63;;;2.60;99.90;;;;;;5073685;28;20141;-66
2024/01/05 02:13:48;;;;;;;18.13;10.50;;;2.60;99.90;;;;;;5074221;28;20390;-66
2024/01/05 02:16:13;;;;;;;18.50;11.23;;;2.70;99.90;;;;;;5096789;27;20040;-67
2024/01/05 02:18:39;;;;;;;20.48;11.98;;;2.50;99.90;;;;;;5091367;28;20044;-66
2024/01/05 02:21:08;;;;;;;20.48;11.48;;;2.70;99.90;;;;;;5074154;28;20042;-66
2024/01/05 02:23:35;;;;;;;18.80;11.38;;;2.60;99.90;;;;;;5090874;28;20086;-67
2024/01/05 02:26:01;;;;;;;16.73;10.05;;;2.50;99.90;;;;;;5093390;27;20493;-66
2024/01/05 02:28:27;;;;;;;20.30;12.60;;;2.60;99.90;;;;;;5073551;28;20027;-65
2024/01/05 02:30:56;;;;;;;20.08;11.80;;;2.40;99.90;;;;;;5091288;28;20035;-66
2024/01/05 02:33:23;;;;;;;18.67;11.38;;;2.40;99.90;;;;;;5076931;28;20612;-65
2024/01/05 02:35:50;;;;;;;23.95;11.93;;;2.50;99.90;;;;;;5090491;28;20063;-66
2024/01/05 02:38:16;;;;;;;15.85;9.77;;;2.80;99.90;;;;;;5055123;28;20158;-66
2024/01/05 02:40:41;;;;;;;18.80;11.13;;;2.80;99.90;;;;;;5073991;28;20692;-67
2024/01/05 02:43:07;;;;;;;18.20;10.50;;;2.50;99.90;;;;;;5054552;28;20402;-66
2024/01/05 02:45:33;;;;;;;22.98;12.27;;;2.70;99.90;;;;;;5074408;28;20306;-67
2024/01/05 02:47:58;;;;;;;21.67;12.68;;;2.40;99.90;;;;;;5090633;28;20509;-67
2024/01/05 02:50:25;;;;;;;18.50;10.90;;;2.50;99.90;;;;;;5056130;28;20047;-66
2024/01/05 02:52:50;;;;;;;18.95;11.23;;;2.80;99.90;;;;;;5073083;28;20284;-67
2024/01/05 02:55:16;;;;;;;18.00;10.95;;;2.60;99.90;;;;;;5072350;28;20473;-67
2024/01/05 02:57:42;;;;;;;23.35;13.02;;;2.80;99.90;;;;;;5094998;27;20058;-67
2024/01/05 03:00:09;;;;;;;21.15;11.77;;;2.70;99.90;;;;;;5073510;28;20051;-67
2024/01/05 03:02:35;;;;;;;22.17;12.23;;;2.80;99.90;;;;;;5076166;28;20039;-67
2024/01/05 03:05:01;;;;;;;19.30;12.27;;;2.40;99.90;;;;;;5089902;28;20374;-66
2024/01/05 03:07:26;;;;;;;19.88;11.63;;;2.70;99.90;;;;;;5056058;28;20094;-68
2024/01/05 03:09:52;;;;;;;17.63;10.38;;;2.60;99.90;;;;;;5072728;28;20112;-67
2024/01/05 03:12:19;;;;;;;13.75;7.82;;;2.60;99.90;;;;;;5072996;28;20482;-67
2024/01/05 03:14:44;;;;;;;23.65;12.52;;;2.40;99.90;;;;;;5055603;28;20327;-68
2024/01/05 03:17:10;;;;;;;21.58;12.00;;;2.70;99.90;;;;;;5089371;28;20586;-67
2024/01/05 03:19:36;;;;;;;25.60;13.10;;;2.70;99.90;;;;;;5072323;28;20054;-67
2024/01/05 03:22:03;;;;;;;24.92;13.88;;;2.50;99.90;;;;;;5055319;28;20036;-67
2024/01/05 03:24:28;;;;;;;20.25;11.77;;;2.20;99.90;;;;;;5072831;28;20421;-67
2024/01/05 03:26:54;;;;;;;19.67;10.52;;;2.60;99.90;;;;;;5038557;28;20039;-67
2024/01/05 03:29:20;;;;;;;20.73;12.15;;;2.30;99.90;;;;;;5089292;28;20057;-67
2024/01/05 03:31:46;;;;;;;18.98;10.23;;;2.30;99.90;;;;;;5089403;28;20043;-67
2024/01/05 03:34:13;;;;;;;24.33;13.98;;;2.20;99.90;;;;;;5089535;28;20507;-66
2024/01/05 03:36:39;;;;;;;27.00;15.30;;;2.70;99.90;;;;;;5075741;28;20216;-67
2024/01/05 03:39:07;;;;;;;24.67;13.25;;;2.30;99.90;;;;;;5088680;28;20185;-67
2024/01/05 03:41:33;;;;;;;26.05;13.85;;;2.20;99.90;;;;;;5072196;28;20043;-66
2024/01/05 03:43:59;;;;;;;23.88;13.82;;;2.40;99.90;;;;;;5088806;28;20035;-67
2024/01/05 03:46:25;;;;;;;26.83;14.13;;;2.30;99.90;;;;;;5072678;28;20044;-67
2024/01/05 03:48:50;;;;;;;30.33;15.63;;;2.30;99.90;;;;;;5074857;28;20043;-67
2024/01/05 03:51:16;;;;;;;26.42;12.10;;;2.80;99.90;;;;;;5071565;28;20031;-67
2024/01/05 03:53:42;;;;;;;25.88;13.48;;;2.80;99.90;;;;;;5087918;28;20503;-67
2024/01/05 03:56:10;;;;;;;29.13;15.32;;;2.50;99.90;;;;;;5071244;28;20074;-67
2024/01/05 03:58:36;;;;;;;18.27;10.13;;;2.60;99.90;;;;;;5071931;28;20046;-67
2024/01/05 04:01:02;;;;;;;22.42;10.23;;;2.80;99.90;;;;;;5070990;28;20784;-68
2024/01/05 04:03:28;;;;;;;22.95;10.93;;;2.70;99.90;;;;;;5092095;27;20040;-68
2024/01/05 04:05:54;;;;;;;22.73;12.23;;;2.20;99.90;;;;;;5088053;28;20038;-67
2024/01/05 04:08:21;;;;;;;18.02;11.07;;;2.20;99.90;;;;;;5071704;28;20043;-68
2024/01/05 04:10:47;;;;;;;18.48;11.70;;;2.40;99.90;;;;;;5088059;28;20138;-67
2024/01/05 04:13:12;;;;;;;14.95;8.50;;;2.30;99.90;;;;;;5088117;28;20039;-69
2024/01/05 04:15:39;;;;;;;23.98;13.15;;;2.60;99.90;;;;;;5071386;28;20074;-68
2024/01/05 04:18:05;;;;;;;25.05;13.30;;;2.10;99.90;;;;;;5071397;28;20684;-69
2024/01/05 04:20:31;;;;;;;28.02;15.95;;;2.30;99.90;;;;;;5088734;28;20113;-69
2024/01/05 04:22:57;;;;;;;27.38;13.43;;;2.90;99.90;;;;;;5075387;28;20047;-69
2024/01/05 04:25:23;;;;;;;29.50;15.23;;;2.20;99.90;;;;;;5087605;28;20050;-68
2024/01/05 04:27:49;;;;;;;25.08;14.23;;;2.90;99.90;;;;;;5053931;28;20777;-69
2024/01/05 04:30:15;;;;;;;30.60;15.65;;;2.60;99.90;;;;;;5054723;28;20028;-68
2024/01/05 04:32:43;;;;;;;17.45;9.05;;;2.80;99.90;;;;;;5070918;28;20043;-68
2024/01/05 04:35:09;;;;;;;29.10;14.73;;;2.60;99.90;;;;;;5087982;28;20161;-68
2024/01/05 04:37:35;;;;;;;23.02;12.48;;;2.90;99.90;;;;;;5087969;28;20028;-68
2024/01/05 04:40:01;;;;;;;24.92;13.00;;;3.00;99.90;;;;;;5070615;28;20069;-67
2024/01/05 04:42:27;;;;;;;27.55;14.25;;;2.60;99.90;;;;;;5053120;28;20039;-70
2024/01/05 04:44:53;;;;;;;18.38;10.48;;;2.20;99.90;;;;;;5054598;28;20122;-68
2024/01/05 04:47:19;;;;;;;18.33;9.57;;;2.30;99.90;;;;;;5070786;28;20051;-67
2024/01/05 04:49:44;;;;;;;26.20;13.43;;;2.40;99.90;;;;;;5054669;28;20044;-69
2024/01/05 04:52:11;;;;;;;33.53;17.15;;;3.00;99.90;;;;;;5070369;28;20039;-68
2024/01/05 04:54:37;;;;;;;30.23;17.30;;;2.70;99.90;;;;;;5087569;28;20665;-68
2024/01/05 04:57:03;;;;;;;27.50;14.80;;;2.30;99.90;;;;;;5071251;28;20050;-67
2024/01/05 04:59:30;;;;;;;33.63;16.92;;;2.70;99.90;;;;;;5071457;28;20310;-67
2024/01/05 05:01:56;;;;;;;23.98;11.95;;;2.30;99.90;;;;;;5069968;28;20048;-69
2024/01/05 05:04:21;;;;;;;25.45;12.57;;;2.40;99.90;;;;;;5087842;28;20054;-68
2024/01/05 05:06:47;;;;;;;41.00;19.23;;;2.70;99.90;;;;;;5074595;28;20255;-69
2024/01/05 05:09:13;;;;;;;18.52;9.88;;;2.50;99.90;;;;;;5057595;28;20039;-68
2024/01/05 05:11:42;;;;;;;30.33;14.32;;;3.00;99.90;;;;;;5056754;28;20040;-68
2024/01/05 05:14:08;;;;;;;17.20;9.25;;;3.00;99.90;;;;;;5074768;28;20491;-68
2024/01/05 05:16:35;;;;;;;33.42;16.77;;;2.30;99.90;;;;;;5095391;27;20043;-67
2024/01/05 05:19:01;;;;;;;34.13;17.90;;;2.90;99.90;;;;;;5057310;28;20108;-67
2024/01/05 05:21:28;;;;;;;32.35;15.48;;;3.10;99.90;;;;;;5075161;28;20127;-68
2024/01/05 05:23:54;;;;;;;22.70;11.35;;;2.30;99.90;;;;;;5074848;28;20047;-68
2024/01/05 05:26:20;;;;;;;27.25;13.52;;;2.80;99.90;;;;;;5058018;28;20323;-68
2024/01/05 05:28:46;;;;;;;22.20;12.43;;;3.20;99.90;;;;;;5074845;28;20343;-67
2024/01/05 05:31:12;;;;;;;35.42;16.77;;;2.90;99.90;;;;;;5074055;28;20024;-67
2024/01/05 05:33:38;;;;;;;36.85;19.05;;;3.00;99.90;;;;;;5074826;28;20044;-71
2024/01/05 05:36:04;;;;;;;29.67;14.70;;;2.30;99.90;;;;;;5074000;28;20555;-68
2024/01/05 05:38:30;;;;;;;34.53;16.02;;;2.60;99.90;;;;;;5074308;28;20032;-67
2024/01/05 05:40:56;;;;;;;37.25;18.40;;;3.00;99.90;;;;;;5074382;28;20040;-65
2024/01/05 05:43:22;;;;;;;20.90;12.50;;;2.30;99.90;;;;;;5074962;28;20047;-65
2024/01/05 05:45:48;;;;;;;30.15;14.23;;;2.80;99.90;;;;;;5074104;28;20048;-65
2024/01/05 05:48:14;;;;;;;36.72;18.30;;;2.60;99.90;;;;;;5073966;28;20055;-66
2024/01/05 05:50:40;;;;;;;39.25;19.98;;;2.30;99.90;;;;;;5074334;28;20050;-68
2024/01/05 05:53:06;;;;;;;27.00;13.93;;;3.20;99.90;;;;;;5056697;28;20345;-65
2024/01/05 05:55:32;;;;;;;27.77;14.20;;;2.40;99.90;;;;;;5057479;28;20417;-65
2024/01/05 05:57:58;;;;;;;25.42;13.85;;;3.00;99.90;;;;;;5057006;28;20254;-65
2024/01/05 06:00:25;;;;;;;35.65;16.60;;;3.10;99.90;;;;;;5074450;28;20134;-65
2024/01/05 06:02:50;;;;;;;36.10;17.67;;;2.40;99.90;;;;;;5091234;28;20568;-66
2024/01/05 06:05:16;;;;;;;33.13;18.10;;;2.40;99.90;;;;;;5073128;28;20086;-67
2024/01/05 06:07:42;;;;;;;31.90;17.27;;;3.10;99.90;;;;;;5074094;28;20130;-66
2024/01/05 06:10:08;;;;;;;23.52;12.93;;;2.50;99.90;;;;;;5073815;28;20043;-66
2024/01/05 06:12:34;;;;;;;33.40;17.13;;;2.80;99.90;;;;;;5073836;28;20071;-67
2024/01/05 06:15:00;;;;;;;29.75;15.75;;;3.20;99.90;;;;;;5090493;28;20165;-68
2024/01/05 06:17:26;;;;;;;33.17;17.40;;;2.60;99.90;;;;;;5073166;28;20051;-66
2024/01/05 06:19:52;;;;;;;40.65;21.23;;;2.80;99.90;;;;;;5073512;28;20301;-66
2024/01/05 06:22:18;;;;;;;36.67;16.77;;;2.60;99.90;;;;;;5090404;28;20035;-68
2024/01/05 06:24:46;;;;;;;43.17;22.27;;;2.70;99.90;;;;;;5073132;28;20078;-68
2024/01/05 06:27:12;;;;;;;44.95;21.13;;;2.60;99.90;;;;;;5073906;28;20074;-68
2024/01/05 06:29:38;;;;;;;52.30;22.70;;;3.40;99.90;;;;;;5073841;28;20042;-68
2024/01/05 06:32:04;;;;;;;41.90;19.20;;;3.60;99.90;;;;;;5056422;28;20515;-67
2024/01/05 06:34:30;;;;;;;43.58;21.30;;;3.50;99.90;;;;;;5090903;28;20066;-67
2024/01/05 06:36:56;;;;;;;35.78;18.73;;;2.90;99.90;;;;;;5073251;28;20035;-67
2024/01/05 06:39:23;;;;;;;32.55;17.52;;;3.40;99.90;;;;;;5073877;28;20069;-66
2024/01/05 06:41:49;;;;;;;25.52;15.50;;;3.50;99.90;;;;;;5095460;27;20110;-66
2024/01/05 06:44:15;;;;;;;29.98;15.90;;;3.50;99.90;;;;;;5074086;28;20282;-66
2024/01/05 06:46:41;;;;;;;28.60;15.30;;;2.70;99.90;;;;;;5090278;28;20489;-66
2024/01/05 06:49:06;;;;;;;24.30;14.80;;;3.50;99.90;;;;;;5072860;28;20051;-67
2024/01/05 06:51:39;;;;;;;26.55;16.25;;;3.40;99.90;;;;;;5074505;28;20027;-66
2024/01/05 06:54:06;;;;;;;26.17;14.70;;;2.90;99.90;;;;;;5090669;28;20055;-66
2024/01/05 06:56:32;;;;;;;26.35;15.98;;;3.10;99.90;;;;;;5073801;28;20051;-67
2024/01/05 06:59:05;;;;;;;33.47;17.67;;;3.40;99.90;;;;;;5072725;28;20633;-67
2024/01/05 07:01:34;;;;;;;31.23;17.48;;;2.90;99.90;;;;;;5073259;28;20031;-67
2024/01/05 07:04:00;;;;;;;32.05;19.02;;;3.20;99.90;;;;;;5055769;28;20039;-66
2024/01/05 07:06:25;;;;;;;34.70;20.58;;;3.40;99.90;;;;;;5054938;28;20160;-66
2024/01/05 07:08:51;;;;;;;32.20;17.83;;;3.00;99.90;;;;;;5090640;28;20497;-67
2024/01/05 07:11:24;;;;;;;31.95;19.15;;;3.50;99.90;;;;;;5089930;28;20040;-66
2024/01/05 07:13:50;;;;;;;31.55;18.40;;;3.50;99.90;;;;;;5091886;28;20114;-67
2024/01/05 07:16:21;;;;;;;28.55;18.00;;;2.70;99.90;;;;;;5090495;28;20035;-67
2024/01/05 07:18:50;;;;;;;30.67;19.25;;;2.70;99.90;;;;;;5073831;28;20501;-66
2024/01/05 07:21:16;;;;;;;24.63;15.13;;;3.60;99.90;;;;;;5055978;28;20162;-66
2024/01/05 07:23:46;;;;;;;27.65;17.88;;;3.30;99.90;;;;;;5089315;28;20031;-66
2024/01/05 07:26:12;;;;;;;15.88;9.48;;;3.10;99.90;;;;;;5073742;28;20322;-65
2024/01/05 07:28:38;;;;;;;26.92;16.80;;;2.90;99.90;;;;;;5072533;28;20496;-66
2024/01/05 07:31:08;;;;;;;30.75;18.35;;;2.80;99.90;;;;;;5072926;28;20039;-66
2024/01/05 07:33:34;;;;;;;29.60;17.73;;;3.50;99.90;;;;;;5073056;28;20299;-65
2024/01/05 07:36:04;;;;;;;29.65;15.98;;;2.80;99.90;;;;;;5073953;28;20043;-66
2024/01/05 07:38:31;;;;;;;32.47;20.08;;;3.00;99.90;;;;;;5055724;28;20043;-66
2024/01/05 07:40:57;;;;;;;30.35;19.73;;;2.80;99.90;;;;;;5055035;28;20071;-68
2024/01/05 07:43:27;;;;;;;28.70;17.73;;;2.80;99.90;;;;;;5073095;28;20035;-66
2024/01/05 07:45:54;;;;;;;39.72;22.83;;;3.50;99.90;;;;;;5056107;28;20035;-66
2024/01/05 07:48:21;;;;;;;32.22;19.10;;;2.80;99.90;;;;;;5056236;28;20681;-66
2024/01/05 07:50:47;;;;;;;32.10;19.67;;;3.30;99.90;;;;;;5056186;28;20078;-66
2024/01/05 07:53:13;;;;;;;31.40;18.02;;;3.50;99.90;;;;;;5071406;28;20620;-67
2024/01/05 07:55:39;;;;;;;33.97;20.13;;;3.40;99.90;;;;;;5090155;28;20040;-67
2024/01/05 07:58:05;;;;;;;36.63;21.85;;;3.10;99.90;;;;;;5073229;28;20491;-66
2024/01/05 08:00:31;;;;;;;34.35;22.52;;;2.80;99.90;;;;;;5072666;28;20122;-68
2024/01/05 08:03:03;;;;;;;39.88;22.33;;;3.50;99.90;;;;;;5073933;28;20051;-71
2024/01/05 08:05:28;;;;;;;46.75;25.55;;;2.80;99.90;;;;;;5057715;28;20036;-67
2024/01/05 08:07:54;;;;;;;38.55;21.17;;;2.90;99.90;;;;;;5056678;28;20363;-67
2024/01/05 08:10:20;;;;;;;30.92;17.83;;;3.10;99.90;;;;;;5106625;27;20823;-68
2024/01/05 08:12:46;;;;;;;38.80;21.27;;;3.30;99.90;;;;;;5055370;28;20093;-67
2024/01/05 08:15:12;;;;;;;31.27;19.17;;;2.80;99.90;;;;;;5056921;28;20281;-67
2024/01/05 08:17:38;;;;;;;46.28;26.55;;;3.40;99.90;;;;;;5073484;28;20034;-66
2024/01/05 08:20:05;;;;;;;43.97;25.88;;;3.70;99.90;;;;;;5055458;28;20035;-66
2024/01/05 08:22:32;;;;;;;45.10;27.88;;;3.10;99.90;;;;;;5056573;28;20039;-66
2024/01/05 08:24:57;;;;;;;50.47;28.45;;;3.70;99.90;;;;;;5123158;27;20326;-67
2024/01/05 08:27:23;;;;;;;40.03;24.80;;;3.00;99.90;;;;;;5056470;28;20209;-66
2024/01/05 08:29:49;;;;;;;43.85;26.55;;;2.90;99.90;;;;;;5054865;28;20126;-66
2024/01/05 08:32:15;;;;;;;41.85;25.05;;;3.80;99.90;;;;;;5055594;28;20070;-67
2024/01/05 08:34:40;;;;;;;34.75;19.88;;;3.00;99.90;;;;;;5089663;28;20507;-65
2024/01/05 08:37:06;;;;;;;40.35;24.10;;;3.50;99.90;;;;;;5072731;28;20549;-66
2024/01/05 08:39:32;;;;;;;46.58;28.33;;;3.10;99.90;;;;;;5077009;28;20043;-67
2024/01/05 08:41:58;;;;;;;40.70;24.00;;;3.40;99.90;;;;;;5076210;28;20505;-68
2024/01/05 08:44:24;;;;;;;45.88;27.27;;;3.30;99.90;;;;;;5077481;28;20081;-67
2024/01/05 08:46:50;;;;;;;41.83;24.75;;;3.80;99.90;;;;;;5059250;28;20071;-67
2024/01/05 08:49:16;;;;;;;31.08;18.60;;;3.20;99.90;;;;;;5076627;28;20570;-67
2024/01/05 08:51:43;;;;;;;40.15;25.15;;;3.80;99.90;;;;;;5059641;28;20413;-67
2024/01/05 08:54:09;;;;;;;45.08;27.63;;;3.10;99.90;;;;;;5076345;28;20542;-67
2024/01/05 08:56:37;;;;;;;37.42;23.55;;;3.20;99.90;;;;;;5076789;28;20160;-70
2024/01/05 08:59:04;;;;;;;30.48;17.95;;;3.80;99.90;;;;;;5058258;28;20051;-67
2024/01/05 09:01:32;;;;;;;38.97;23.88;;;3.10;99.90;;;;;;5096265;27;20180;-67
2024/01/05 09:03:58;;;;;;;33.10;19.25;;;3.00;99.90;;;;;;5076843;28;20039;-66
2024/01/05 09:06:24;;;;;;;41.58;26.15;;;3.70;99.90;;;;;;5076269;28;20515;-67
2024/01/05 09:08:50;;;;;;;44.83;26.05;;;3.30;99.90;;;;;;5076249;28;20043;-66
2024/01/05 09:11:16;;;;;;;40.53;26.65;;;3.40;99.90;;;;;;5076149;28;20341;-67
2024/01/05 09:13:42;;;;;;;42.90;26.70;;;3.90;99.90;;;;;;5077102;28;20063;-68
2024/01/05 09:16:07;;;;;;;43.83;24.92;;;3.20;99.90;;;;;;5059524;28;20533;-67
2024/01/05 09:18:36;;;;;;;38.80;24.27;;;3.70;99.90;;;;;;5076839;28;20035;-69
2024/01/05 09:21:02;;;;;;;40.03;23.95;;;3.90;99.90;;;;;;5058783;28;20704;-67
2024/01/05 09:23:28;;;;;;;39.88;23.25;;;3.90;99.90;;;;;;5076502;28;20046;-69
2024/01/05 09:25:54;;;;;;;31.08;19.83;;;3.50;99.90;;;;;;5076933;28;20047;-67
2024/01/05 09:28:20;;;;;;;37.05;22.75;;;3.20;99.90;;;;;;5076675;28;20501;-68
2024/01/05 09:30:46;;;;;;;45.00;27.27;;;3.20;99.90;;;;;;5076413;28;20048;-67
2024/01/05 09:33:12;;;;;;;41.22;25.60;;;3.40;99.90;;;;;;5093158;28;20035;-68
2024/01/05 09:35:38;;;;;;;40.45;24.83;;;3.30;99.90;;;;;;5045985;28;20027;-68
2024/01/05 09:38:04;;;;;;;44.80;26.08;;;3.60;99.90;;;;;;5076045;28;20047;-67
2024/01/05 09:40:30;;;;;;;39.17;23.35;;;3.80;99.90;;;;;;5075469;28;20169;-68
2024/01/05 09:42:57;;;;;;;36.53;20.50;;;3.50;99.90;;;;;;5059148;28;20352;-71
2024/01/05 09:45:24;;;;;;;35.58;21.75;;;3.80;99.90;;;;;;5076238;28;20501;-72
2024/01/05 09:47:51;;;;;;;44.83;24.65;;;4.10;99.90;;;;;;5092241;28;20043;-71
2024/01/05 09:50:17;;;;;;;32.05;18.50;;;3.90;99.90;;;;;;5079911;28;20054;-69
2024/01/05 09:52:44;;;;;;;36.60;20.98;;;3.20;99.90;;;;;;5093117;28;20444;-69
2024/01/05 09:55:12;;;;;;;44.47;24.23;;;4.20;99.90;;;;;;5075492;28;20096;-71
2024/01/05 09:57:40;;;;;;;44.00;24.45;;;3.60;99.90;;;;;;5058141;28;20122;-71
2024/01/05 10:00:08;;;;;;;52.95;26.13;;;3.70;99.90;;;;;;5093002;28;20043;-71
2024/01/05 10:02:40;;;;;;;38.72;23.00;;;4.30;99.90;;;;;;5091509;28;20035;-70
2024/01/05 10:05:06;;;;;;;46.78;24.42;;;4.40;99.90;;;;;;5094945;27;20244;-71
2024/01/05 10:07:31;;;;;;;48.03;25.85;;;4.10;99.90;;;;;;5092212;28;20039;-71
2024/01/05 10:09:58;;;;;;;34.08;19.98;;;4.40;99.90;;;;;;5092649;28;20043;-72
2024/01/05 10:12:24;;;;;;;34.25;20.58;;;3.30;99.90;;;;;;5093046;28;20050;-72
2024/01/05 10:14:50;;;;;;;36.28;20.08;;;3.70;99.90;;;;;;5074891;28;20650;-73
2024/01/05 10:17:16;;;;;;;40.67;21.13;;;4.20;99.90;;;;;;5056991;28;20260;-73
2024/01/05 10:19:42;;;;;;;40.97;23.80;;;4.40;99.90;;;;;;5075785;28;20451;-72
2024/01/05 10:22:13;;;;;;;27.92;15.65;;;3.30;99.90;;;;;;5075389;28;20114;-72
2024/01/05 10:24:41;;;;;;;29.00;16.38;;;4.50;99.90;;;;;;5075153;28;20235;-72
2024/01/05 10:27:09;;;;;;;32.28;20.23;;;3.80;99.90;;;;;;5091526;28;20302;-73
2024/01/05 10:29:36;;;;;;;31.02;19.20;;;4.40;99.90;;;;;;5074644;28;20338;-73
2024/01/05 10:32:17;;;;;;;35.50;19.83;;;3.60;99.90;;;;;;5091734;28;20044;-73
2024/01/05 10:34:48;;;;;;;22.25;13.90;;;4.30;99.90;;;;;;5075459;28;20228;-72
2024/01/05 10:37:19;;;;;;;27.63;15.75;;;3.40;99.90;;;;;;5074778;28;20049;-73
2024/01/05 10:39:46;;;;;;;24.25;14.02;;;4.20;99.90;;;;;;5074903;28;20042;-72
2024/01/05 10:42:26;;;;;;;19.88;13.38;;;3.90;99.90;;;;;;5091442;28;20039;-73
2024/01/05 10:44:54;;;;;;;29.52;17.63;;;4.50;99.90;;;;;;5064796;28;20045;-74
2024/01/05 10:47:25;;;;;;;24.13;13.68;;;4.50;99.90;;;;;;5074288;28;20113;-73
2024/01/05 10:49:55;;;;;;;30.23;15.38;;;3.40;99.90;;;;;;5073711;28;20118;-73
2024/01/05 10:52:27;;;;;;;25.33;15.52;;;3.60;99.90;;;;;;5091235;28;20221;-73
2024/01/05 10:54:53;;;;;;;25.17;13.65;;;3.40;99.90;;;;;;5074639;28;20070;-73
2024/01/05 10:57:21;;;;;;;27.95;16.48;;;3.70;99.90;;;;;;5073970;28;20067;-73
2024/01/05 10:59:48;;;;;;;21.52;12.77;;;3.40;99.90;;;;;;5073787;28;20134;-72
2024/01/05 11:02:40;;;;;;;27.08;16.27;;;3.90;99.90;;;;;;5075837;28;20393;-72
2024/01/05 11:05:13;;;;;;;22.42;14.13;;;4.30;99.90;;;;;;5074422;28;20088;-71
2024/01/05 11:07:41;;;;;;;24.25;14.02;;;4.10;99.90;;;;;;5056816;28;20047;-71
2024/01/05 11:10:19;;;;;;;38.25;19.75;;;4.40;99.90;;;;;;5090591;28;20039;-71
2024/01/05 11:13:13;;;;;;;33.35;17.75;;;4.20;99.90;;;;;;5072604;28;20407;-70
2024/01/05 11:15:44;;;;;;;34.72;20.10;;;3.70;99.90;;;;;;5090864;28;20036;-71
2024/01/05 11:18:22;;;;;;;35.97;22.85;;;3.90;99.90;;;;;;5074065;28;20236;-71
2024/01/05 11:21:02;;;;;;;37.22;20.42;;;4.20;99.90;;;;;;5073909;28;20043;-71
2024/01/05 11:23:31;;;;;;;38.75;22.23;;;4.90;99.90;;;;;;5074185;28;20151;-71
2024/01/05 11:25:56;;;;;;;36.75;20.63;;;4.00;99.90;;;;;;5081477;28;20059;-71
2024/01/05 11:28:36;;;;;;;37.35;22.25;;;4.90;99.90;;;;;;5073977;28;20086;-71
2024/01/05 11:31:05;;;;;;;33.08;20.48;;;3.70;99.90;;;;;;5123886;27;20108;-71
2024/01/05 11:33:48;;;;;;;31.70;19.42;;;4.70;99.90;;;;;;5055319;28;20040;-71
2024/01/05 11:36:49;;;;;;;33.83;19.98;;;4.30;99.90;;;;;;5073792;28;20031;-73
2024/01/05 11:39:44;;;;;;;16.63;11.20;;;4.40;99.90;;;;;;5075609;28;20482;-72
2024/01/05 11:42:23;;;;;;;33.50;20.45;;;4.30;99.90;;;;;;5090400;28;20102;-71
2024/01/05 11:44:49;;;;;;;30.92;20.08;;;3.90;99.90;;;;;;5090173;28;20050;-71
2024/01/05 11:47:40;;;;;;;29.40;20.85;;;3.60;99.90;;;;;;5072930;28;20112;-71
2024/01/05 11:50:32;;;;;;;23.75;16.80;;;4.70;99.90;;;;;;5073468;28;20290;-71
2024/01/05 11:53:24;;;;;;;27.93;19.33;;;4.10;99.90;;;;;;5075307;27;20047;-70
2024/01/05 11:55:52;;;;;;;27.17;18.70;;;3.60;99.90;;;;;;5090157;28;20775;-71
2024/01/05 11:58:22;;;;;;;30.88;19.58;;;3.90;99.90;;;;;;5072889;28;20039;-71
2024/01/05 12:00:49;;;;;;;27.52;18.55;;;3.80;99.90;;;;;;5060397;28;20117;-71
2024/01/05 12:03:17;;;;;;;30.20;20.55;;;4.50;99.90;;;;;;5093403;27;20035;-71
2024/01/05 12:05:43;;;;;;;24.90;17.23;;;3.80;99.90;;;;;;5090324;28;20097;-70
2024/01/05 12:08:13;;;;;;;26.13;19.25;;;4.10;99.90;;;;;;5090610;28;20315;-71
2024/01/05 12:10:39;;;;;;;22.25;15.80;;;5.10;99.90;;;;;;5090023;28;20040;-70
2024/01/05 12:13:06;;;;;;;25.55;17.75;;;3.70;99.90;;;;;;5088616;28;20261;-72
2024/01/05 12:15:33;;;;;;;15.82;12.73;;;3.70;99.90;;;;;;5072559;28;20348;-70
2024/01/05 12:18:10;;;;;;;25.10;19.30;;;3.50;99.90;;;;;;5055912;28;20039;-70
2024/01/05 12:20:37;;;;;;;25.80;17.63;;;3.70;99.90;;;;;;5074566;28;20055;-70
2024/01/05 12:23:03;;;;;;;22.30;16.48;;;5.10;99.90;;;;;;5078254;28;20069;-70
2024/01/05 12:25:30;;;;;;;19.50;13.68;;;3.50;99.90;;;;;;5072289;28;20039;-70
2024/01/05 12:27:57;;;;;;;23.92;15.93;;;3.90;99.90;;;;;;5071816;28;20047;-70
2024/01/05 12:30:23;;;;;;;25.25;18.35;;;4.50;99.90;;;;;;5089599;28;20035;-71
2024/01/05 12:32:50;;;;;;;22.63;14.32;;;5.10;99.90;;;;;;5091974;28;20045;-71
2024/01/05 12:35:16;;;;;;;21.80;15.27;;;4.20;99.90;;;;;;5088675;28;20162;-70
2024/01/05 12:37:57;;;;;;;21.15;16.58;;;5.00;99.90;;;;;;5091017;28;20096;-71
2024/01/05 12:40:24;;;;;;;28.38;19.75;;;4.40;99.90;;;;;;5072770;28;20047;-70